createdAt,value
2022-12-04T00:01:24.297Z,99746.47
2022-12-04T00:03:56.578Z,99728.59
2022-12-04T00:06:25.521Z,99745.28
2022-12-04T00:08:53.765Z,99698.81
2022-12-04T00:11:25.674Z,99744.69
2022-12-04T00:13:53.377Z,99648.13
2022-12-04T00:16:23.775Z,99772.56
2022-12-04T00:18:52.790Z,99724.72
2022-12-04T00:21:21.626Z,99762.38
2022-12-04T00:23:49.897Z,99714.78
2022-12-04T00:26:23.261Z,99754.00
2022-12-04T00:28:52.571Z,99769.28
2022-12-04T00:31:25.202Z,99751.34
2022-12-04T00:33:53.599Z,99745.13
2022-12-04T00:36:24.448Z,99753.09
2022-12-04T00:38:53.347Z,99747.09
2022-12-04T00:41:24.049Z,99736.22
2022-12-04T00:43:52.893Z,99732.19
2022-12-04T00:46:21.503Z,99699.63
2022-12-04T00:48:49.591Z,99696.59
2022-12-04T00:51:20.756Z,99699.25
2022-12-04T00:53:48.817Z,99743.03
2022-12-04T00:56:23.512Z,99734.31
2022-12-04T00:58:56.826Z,99739.44
2022-12-04T01:01:25.705Z,99715.22
2022-12-04T01:03:54.847Z,99678.75
2022-12-04T01:06:32.334Z,99733.78
2022-12-04T01:09:01.856Z,99723.44
2022-12-04T01:11:30.581Z,99722.31
2022-12-04T01:13:59.311Z,99733.59
2022-12-04T01:16:34.833Z,99709.13
2022-12-04T01:19:03.809Z,99715.25
2022-12-04T01:21:31.879Z,99741.63
2022-12-04T01:24:00.893Z,99709.19
2022-12-04T01:26:28.714Z,99713.19
2022-12-04T01:28:56.454Z,99672.72
2022-12-04T01:31:24.670Z,99737.97
2022-12-04T01:33:52.839Z,99723.25
2022-12-04T01:36:23.472Z,99744.03
2022-12-04T01:38:51.670Z,99714.13
2022-12-04T01:41:24.775Z,99738.81
2022-12-04T01:44:07.813Z,99733.41
2022-12-04T01:46:35.749Z,99744.53
2022-12-04T01:49:10.485Z,99747.78
2022-12-04T01:51:42.943Z,99742.22
2022-12-04T01:54:22.852Z,99762.63
2022-12-04T01:56:58.629Z,99718.06
2022-12-04T01:59:32.826Z,99765.34
2022-12-04T02:02:05.761Z,99736.50
2022-12-04T02:04:34.572Z,99753.47
2022-12-04T02:07:04.248Z,99747.84
2022-12-04T02:09:33.258Z,99736.63
2022-12-04T02:12:24.231Z,99732.53
2022-12-04T02:15:28.720Z,99741.38
2022-12-04T02:18:04.116Z,99743.03
2022-12-04T02:21:10.619Z,99710.34
2022-12-04T02:23:53.554Z,99763.09
2022-12-04T02:26:51.378Z,99769.34
2022-12-04T02:29:43.864Z,99730.56
2022-12-04T02:32:21.464Z,99773.66
2022-12-04T02:35:23.868Z,99806.00
2022-12-04T02:37:57.508Z,99737.03
2022-12-04T02:40:29.358Z,99703.13
2022-12-04T02:43:13.473Z,99739.50
2022-12-04T02:45:50.027Z,99732.66
2022-12-04T02:48:21.333Z,99722.94
2022-12-04T02:50:54.697Z,99746.66
2022-12-04T02:53:35.446Z,99683.34
2022-12-04T02:56:16.855Z,99701.16
2022-12-04T02:58:53.664Z,99706.28
2022-12-04T03:01:26.997Z,99682.25
2022-12-04T03:04:03.451Z,99731.91
2022-12-04T03:06:37.238Z,99743.47
2022-12-04T03:09:38.831Z,99732.84
2022-12-04T03:12:15.170Z,99731.25
2022-12-04T03:14:50.588Z,99734.16
2022-12-04T03:17:55.675Z,99711.03
2022-12-04T03:20:24.557Z,99702.38
2022-12-04T03:23:03.510Z,99731.69
2022-12-04T03:25:40.058Z,99735.50
2022-12-04T03:28:20.975Z,99696.00
2022-12-04T03:30:59.729Z,99734.97
2022-12-04T03:33:32.804Z,99726.13
2022-12-04T03:36:12.580Z,99686.41
2022-12-04T03:38:58.180Z,99727.28
2022-12-04T03:41:32.872Z,99675.94
2022-12-04T03:44:16.589Z,99733.16
2022-12-04T03:46:59.432Z,99744.19
2022-12-04T03:49:48.419Z,99705.31
2022-12-04T03:52:25.115Z,99757.81
2022-12-04T03:55:09.799Z,99726.75
2022-12-04T03:57:42.138Z,99749.84
2022-12-04T04:00:20.271Z,99745.75
2022-12-04T04:02:57.643Z,99744.72
2022-12-04T04:05:27.124Z,99750.34
2022-12-04T04:08:23.792Z,99701.41
2022-12-04T04:10:58.180Z,99726.19
2022-12-04T04:13:51.090Z,99747.56
2022-12-04T04:16:41.465Z,99748.88
2022-12-04T04:19:32.435Z,99742.75
2022-12-04T04:22:23.052Z,99718.34
2022-12-04T04:25:17.259Z,99744.78
2022-12-04T04:27:53.677Z,99728.09
2022-12-04T04:30:22.738Z,99692.13
2022-12-04T04:32:56.368Z,99738.84
2022-12-04T04:35:57.920Z,99736.97
2022-12-04T04:38:51.829Z,99746.41
2022-12-04T04:41:30.032Z,99725.94
2022-12-04T04:44:41.012Z,99735.72
2022-12-04T04:47:18.854Z,99746.97
2022-12-04T04:49:49.686Z,99740.47
2022-12-04T04:52:20.546Z,99703.47
2022-12-04T04:54:48.801Z,99678.84
2022-12-04T04:57:31.662Z,99775.19
2022-12-04T04:59:59.528Z,99733.28
2022-12-04T05:02:27.669Z,99766.84
2022-12-04T05:04:56.423Z,99731.16
2022-12-04T05:07:24.039Z,99746.47
2022-12-04T05:09:51.942Z,99788.28
2022-12-04T05:12:19.778Z,99781.34
2022-12-04T05:14:48.780Z,99767.66
2022-12-04T05:17:16.771Z,99775.38
2022-12-04T05:19:57.550Z,99730.59
2022-12-04T05:22:30.452Z,99764.94
2022-12-04T05:24:58.539Z,99777.84
2022-12-04T05:27:27.771Z,99731.38
2022-12-04T05:29:57.779Z,99738.69
2022-12-04T05:32:28.473Z,99772.16
2022-12-04T05:34:57.464Z,99723.78
2022-12-04T05:37:25.858Z,99764.53
2022-12-04T05:39:54.457Z,99701.47
2022-12-04T05:42:22.433Z,99767.41
2022-12-04T05:44:51.498Z,99721.75
2022-12-04T05:47:19.230Z,99786.47
2022-12-04T05:49:46.987Z,99786.16
2022-12-04T05:52:15.908Z,99783.00
2022-12-04T05:54:43.563Z,99803.09
2022-12-04T05:57:11.573Z,99809.25
2022-12-04T05:59:39.404Z,99773.94
2022-12-04T06:02:06.986Z,99779.50
2022-12-04T06:04:34.637Z,99744.50
2022-12-04T06:07:02.363Z,99759.72
2022-12-04T06:09:30.137Z,99767.72
2022-12-04T06:11:58.614Z,99729.69
2022-12-04T06:14:26.369Z,99766.19
2022-12-04T06:16:54.178Z,99759.25
2022-12-04T06:19:22.927Z,99781.25
2022-12-04T06:21:52.650Z,99790.47
2022-12-04T06:24:23.363Z,99787.75
2022-12-04T06:27:26.345Z,99770.81
2022-12-04T06:29:43.032Z,99786.66
2022-12-04T06:32:11.635Z,99756.03
2022-12-04T06:34:41.629Z,99776.09
2022-12-04T06:37:09.634Z,99735.56
2022-12-04T06:39:37.397Z,99777.06
2022-12-04T06:42:05.200Z,99767.38
2022-12-04T06:44:33.045Z,99772.50
2022-12-04T06:47:01.184Z,99754.13
2022-12-04T06:49:29.067Z,99782.09
2022-12-04T06:51:58.119Z,99769.22
2022-12-04T06:54:26.688Z,99776.16
2022-12-04T06:56:54.480Z,99783.88
2022-12-04T06:59:22.155Z,99786.88
2022-12-04T07:01:49.812Z,99777.06
2022-12-04T07:04:17.685Z,99762.31
2022-12-04T07:06:45.386Z,99746.97
2022-12-04T07:09:17.696Z,99757.19
2022-12-04T07:11:45.932Z,99785.41
2022-12-04T07:14:14.559Z,99787.31
2022-12-04T07:16:43.066Z,99776.38
2022-12-04T07:19:12.514Z,99796.09
2022-12-04T07:21:41.217Z,99796.16
2022-12-04T07:24:15.199Z,99750.72
2022-12-04T07:26:43.274Z,99749.13
2022-12-04T07:29:10.898Z,99738.69
2022-12-04T07:31:38.915Z,99760.63
2022-12-04T07:34:06.774Z,99797.72
2022-12-04T07:36:34.452Z,99773.56
2022-12-04T07:39:02.087Z,99801.75
2022-12-04T07:41:29.876Z,99801.44
2022-12-04T07:43:57.926Z,99798.03
2022-12-04T07:46:27.643Z,99816.63
2022-12-04T07:48:56.925Z,99785.75
2022-12-04T07:51:27.807Z,99816.06
2022-12-04T07:54:02.613Z,99788.09
2022-12-04T07:56:30.811Z,99832.47
2022-12-04T07:58:59.576Z,99835.69
2022-12-04T08:01:27.476Z,99796.16
2022-12-04T08:03:58.566Z,99799.66
2022-12-04T08:06:28.541Z,99802.13
2022-12-04T08:08:57.584Z,99834.88
2022-12-04T08:11:27.245Z,99830.75
2022-12-04T08:14:00.922Z,99846.69
2022-12-04T08:16:30.575Z,99836.13
2022-12-04T08:18:59.238Z,99850.50
2022-12-04T08:21:30.396Z,99865.16
2022-12-04T08:23:59.749Z,99843.22
2022-12-04T08:26:30.498Z,99858.63
2022-12-04T08:28:59.214Z,99868.53
2022-12-04T08:31:29.657Z,99870.19
2022-12-04T08:33:58.943Z,99876.38
2022-12-04T08:36:27.380Z,99865.75
2022-12-04T08:38:55.912Z,99854.47
2022-12-04T08:41:26.223Z,99867.38
2022-12-04T08:43:55.970Z,99872.19
2022-12-04T08:46:25.664Z,99878.66
2022-12-04T08:48:54.501Z,99881.88
2022-12-04T08:51:30.764Z,99891.63
2022-12-04T08:54:00.995Z,99903.59
2022-12-04T08:56:31.070Z,99907.41
2022-12-04T08:59:00.365Z,99898.47
2022-12-04T09:01:29.543Z,99856.59
2022-12-04T09:03:57.714Z,99912.59
2022-12-04T09:06:25.476Z,99897.94
2022-12-04T09:08:54.792Z,99895.97
2022-12-04T09:11:24.790Z,99859.91
2022-12-04T09:13:52.804Z,99850.94
2022-12-04T09:16:23.715Z,99887.97
2022-12-04T09:18:53.951Z,99889.44
2022-12-04T09:21:22.853Z,99845.06
2022-12-04T09:23:51.294Z,99890.69
2022-12-04T09:26:33.082Z,99896.09
2022-12-04T09:29:03.993Z,99904.75
2022-12-04T09:31:32.762Z,99859.00
2022-12-04T09:34:01.753Z,99913.59
2022-12-04T09:36:30.300Z,99925.72
2022-12-04T09:38:58.578Z,99889.81
2022-12-04T09:41:51.003Z,99945.25
2022-12-04T09:44:33.423Z,99962.91
2022-12-04T09:47:03.207Z,99919.41
2022-12-04T09:49:48.952Z,99948.19
2022-12-04T09:52:35.221Z,99951.72
2022-12-04T09:55:05.155Z,99941.50
2022-12-04T09:57:37.380Z,99952.34
2022-12-04T10:00:13.783Z,99951.25
2022-12-04T10:02:44.984Z,99911.81
2022-12-04T10:05:29.717Z,99905.72
2022-12-04T10:08:05.493Z,99922.88
2022-12-04T10:10:46.852Z,99942.41
2022-12-04T10:13:48.548Z,99947.81
2022-12-04T10:16:29.486Z,99935.31
2022-12-04T10:19:07.521Z,99936.66
2022-12-04T10:22:09.362Z,99926.59
2022-12-04T10:24:52.524Z,99898.16
2022-12-04T10:27:36.797Z,99892.41
2022-12-04T10:30:26.782Z,99934.38
2022-12-04T10:33:04.380Z,99891.91
2022-12-04T10:35:35.452Z,99930.56
2022-12-04T10:38:41.145Z,99937.00
2022-12-04T10:41:21.599Z,99941.31
2022-12-04T10:43:50.896Z,99938.59
2022-12-04T10:46:31.815Z,99925.34
2022-12-04T10:49:09.140Z,99903.78
2022-12-04T10:51:40.720Z,99878.06
2022-12-04T10:54:27.245Z,99919.09
2022-12-04T10:56:56.325Z,99909.34
2022-12-04T10:59:24.453Z,99895.50
2022-12-04T11:02:03.108Z,99911.44
2022-12-04T11:04:35.790Z,99921.31
2022-12-04T11:07:07.807Z,99905.31
2022-12-04T11:09:36.971Z,99921.81
2022-12-04T11:12:08.281Z,99921.81
2022-12-04T11:14:36.471Z,99882.59
2022-12-04T11:17:07.413Z,99903.84
2022-12-04T11:19:36.590Z,99883.47
2022-12-04T11:22:12.658Z,99909.28
2022-12-04T11:24:42.943Z,99903.84
2022-12-04T11:27:23.392Z,99935.19
2022-12-04T11:29:51.750Z,99947.44
2022-12-04T11:32:33.189Z,99900.34
2022-12-04T11:35:17.808Z,99916.19
2022-12-04T11:38:08.023Z,99853.28
2022-12-04T11:40:36.958Z,99853.66
2022-12-04T11:43:12.914Z,99933.44
2022-12-04T11:45:41.214Z,99929.09
2022-12-04T11:48:18.521Z,99940.19
2022-12-04T11:51:01.371Z,99937.47
2022-12-04T11:53:34.940Z,99934.44
2022-12-04T11:56:11.560Z,99921.91
2022-12-04T11:58:45.231Z,99902.72
2022-12-04T12:01:44.133Z,99905.75
2022-12-04T12:04:43.411Z,99925.13
2022-12-04T12:07:36.976Z,99927.84
2022-12-04T12:10:13.785Z,99923.78
2022-12-04T12:12:59.243Z,99893.75
2022-12-04T12:15:40.140Z,99883.72
2022-12-04T12:18:20.907Z,99903.19
2022-12-04T12:21:06.017Z,99917.13
2022-12-04T12:23:45.917Z,99913.03
2022-12-04T12:26:19.013Z,99924.94
2022-12-04T12:29:14.590Z,99912.22
2022-12-04T12:31:52.110Z,99907.38
2022-12-04T12:34:42.074Z,99921.31
2022-12-04T12:37:19.878Z,99880.50
2022-12-04T12:40:14.920Z,99849.53
2022-12-04T12:42:58.411Z,99921.69
2022-12-04T12:45:39.133Z,99921.00
2022-12-04T12:48:15.838Z,99885.50
2022-12-04T12:51:08.878Z,99927.47
2022-12-04T12:53:48.490Z,99904.88
2022-12-04T12:56:17.043Z,99840.78
2022-12-04T12:58:50.122Z,99916.00
2022-12-04T13:01:25.977Z,99920.31
2022-12-04T13:04:08.946Z,99907.03
2022-12-04T13:06:40.636Z,99918.72
2022-12-04T13:09:14.832Z,99876.75
2022-12-04T13:11:45.787Z,99850.09
2022-12-04T13:14:14.216Z,99879.56
2022-12-04T13:16:54.264Z,99884.38
2022-12-04T13:19:24.327Z,99927.72
2022-12-04T13:22:07.473Z,99928.50
2022-12-04T13:24:35.309Z,99934.38
2022-12-04T13:27:32.674Z,99935.09
2022-12-04T13:30:23.889Z,99927.94
2022-12-04T13:33:10.236Z,99929.78
2022-12-04T13:35:56.223Z,99933.28
2022-12-04T13:38:51.540Z,99937.69
2022-12-04T13:41:24.409Z,99936.69
2022-12-04T13:43:54.163Z,99948.38
2022-12-04T13:46:42.747Z,99948.44
2022-12-04T13:49:30.063Z,99888.13
2022-12-04T13:51:59.451Z,99915.53
2022-12-04T13:54:36.406Z,99916.75
2022-12-04T13:57:30.549Z,99916.25
2022-12-04T14:00:22.287Z,99904.16
2022-12-04T14:02:53.174Z,99929.97
2022-12-04T14:05:28.325Z,99933.91
2022-12-04T14:08:07.190Z,99930.84
2022-12-04T14:10:38.999Z,99951.00
2022-12-04T14:13:13.532Z,99955.41
2022-12-04T14:15:41.732Z,99894.75
2022-12-04T14:18:09.546Z,99942.53
2022-12-04T14:20:38.763Z,99940.78
2022-12-04T14:23:10.957Z,99934.31
2022-12-04T14:25:40.199Z,99907.41
2022-12-04T14:28:41.758Z,99925.97
2022-12-04T14:31:27.317Z,99952.75
2022-12-04T14:34:16.164Z,99953.34
2022-12-04T14:36:47.909Z,99947.75
2022-12-04T14:39:52.576Z,99961.06
2022-12-04T14:42:31.596Z,99901.19
2022-12-04T14:45:01.072Z,99950.81
2022-12-04T14:47:32.182Z,99962.81
2022-12-04T14:50:27.169Z,99948.16
2022-12-04T14:53:28.968Z,99922.78
2022-12-04T14:56:07.658Z,99943.41
2022-12-04T14:58:38.687Z,99981.53
2022-12-04T15:01:30.175Z,99977.13
2022-12-04T15:04:06.413Z,99920.63
2022-12-04T15:06:34.250Z,99969.50
2022-12-04T15:09:23.133Z,99896.00
2022-12-04T15:12:15.388Z,99944.13
2022-12-04T15:14:45.829Z,99902.59
2022-12-04T15:17:16.303Z,99974.38
2022-12-04T15:19:45.203Z,99984.25
2022-12-04T15:22:28.737Z,99987.97
2022-12-04T15:24:57.040Z,99998.44
2022-12-04T15:27:32.111Z,99989.19
2022-12-04T15:30:02.527Z,99970.25
2022-12-04T15:32:31.573Z,99991.44
2022-12-04T15:35:09.136Z,100011.41
2022-12-04T15:37:37.377Z,99947.38
2022-12-04T15:40:09.176Z,99960.88
2022-12-04T15:42:36.842Z,99999.78
2022-12-04T15:45:10.744Z,100021.34
2022-12-04T15:47:54.086Z,100027.91
2022-12-04T15:50:27.437Z,100027.47
2022-12-04T15:53:08.621Z,100005.88
2022-12-04T15:55:51.468Z,99989.09
2022-12-04T15:58:30.073Z,100023.78
2022-12-04T16:01:03.935Z,100033.06
2022-12-04T16:03:37.679Z,100036.88
2022-12-04T16:06:22.998Z,100042.63
2022-12-04T16:08:56.105Z,100050.25
2022-12-04T16:11:30.026Z,100053.75
2022-12-04T16:14:12.939Z,100050.53
2022-12-04T16:16:52.960Z,100003.81
2022-12-04T16:19:28.830Z,100071.47
2022-12-04T16:21:57.316Z,100054.91
2022-12-04T16:24:25.290Z,100068.63
2022-12-04T16:26:55.790Z,100087.19
2022-12-04T16:29:24.331Z,100091.44
2022-12-04T16:31:52.552Z,100082.47
2022-12-04T16:34:20.750Z,100092.91
2022-12-04T16:36:48.536Z,100103.59
2022-12-04T16:39:16.363Z,100028.66
2022-12-04T16:41:43.973Z,100088.41
2022-12-04T16:44:16.721Z,100103.13
2022-12-04T16:46:45.468Z,100085.47
2022-12-04T16:49:14.185Z,100109.13
2022-12-04T16:51:49.992Z,100081.22
2022-12-04T16:54:17.711Z,100058.63
2022-12-04T16:56:45.374Z,100119.56
2022-12-04T16:59:13.087Z,100074.13
2022-12-04T17:01:45.987Z,100118.63
2022-12-04T17:04:14.315Z,100068.13
2022-12-04T17:06:42.575Z,100100.78
2022-12-04T17:09:10.792Z,100111.06
2022-12-04T17:11:39.343Z,100116.56
2022-12-04T17:14:07.617Z,100124.66
2022-12-04T17:16:41.816Z,100107.19
2022-12-04T17:19:13.353Z,100131.25
2022-12-04T17:21:41.938Z,100052.91
2022-12-04T17:24:09.712Z,100049.94
2022-12-04T17:26:40.041Z,100134.66
2022-12-04T17:29:07.718Z,100104.03
2022-12-04T17:31:35.599Z,100085.47
2022-12-04T17:34:04.498Z,100138.63
2022-12-04T17:36:32.151Z,100155.63
2022-12-04T17:39:03.595Z,100152.13
2022-12-04T17:41:31.380Z,100156.53
2022-12-04T17:43:59.741Z,100159.81
2022-12-04T17:46:27.681Z,100172.09
2022-12-04T17:48:59.502Z,100171.59
2022-12-04T17:51:30.421Z,100154.72
2022-12-04T17:53:59.345Z,100152.56
2022-12-04T17:56:28.155Z,100158.53
2022-12-04T17:58:55.866Z,100193.06
2022-12-04T18:01:26.677Z,100165.34
2022-12-04T18:04:01.528Z,100179.91
2022-12-04T18:06:43.409Z,100186.09
2022-12-04T18:09:16.011Z,100157.09
2022-12-04T18:11:46.877Z,100181.06
2022-12-04T18:14:18.162Z,100208.47
2022-12-04T18:16:53.023Z,100205.22
2022-12-04T18:19:23.489Z,100207.94
2022-12-04T18:21:52.309Z,100232.94
2022-12-04T18:24:21.229Z,100192.50
2022-12-04T18:26:50.083Z,100214.31
2022-12-04T18:29:23.886Z,100214.31
2022-12-04T18:31:52.301Z,100198.94
2022-12-04T18:34:21.562Z,100219.16
2022-12-04T18:36:49.585Z,100181.63
2022-12-04T18:39:19.797Z,100206.94
2022-12-04T18:41:48.205Z,100228.22
2022-12-04T18:44:17.757Z,100231.75
2022-12-04T18:46:45.341Z,100175.22
2022-12-04T18:49:13.105Z,100222.13
2022-12-04T18:51:49.565Z,100191.09
2022-12-04T18:54:19.380Z,100246.13
2022-12-04T18:56:47.340Z,100247.53
2022-12-04T18:59:21.456Z,100250.66
2022-12-04T19:01:52.455Z,100119.66
2022-12-04T19:04:23.709Z,100249.00
2022-12-04T19:06:54.424Z,100221.81
2022-12-04T19:09:47.300Z,100189.44
2022-12-04T19:12:13.088Z,100225.66
2022-12-04T19:14:42.694Z,100238.88
2022-12-04T19:17:11.473Z,100264.50
2022-12-04T19:19:39.065Z,100267.47
2022-12-04T19:22:07.587Z,100245.63
2022-12-04T19:24:35.317Z,100268.31
2022-12-04T19:27:10.292Z,100269.72
2022-12-04T19:29:42.851Z,100268.44
2022-12-04T19:32:11.245Z,100280.59
2022-12-04T19:34:39.122Z,100227.78
2022-12-04T19:37:07.632Z,100236.47
2022-12-04T19:39:35.482Z,100284.53
2022-12-04T19:42:03.185Z,100236.03
2022-12-04T19:47:18.887Z,100308.19
2022-12-04T19:49:47.098Z,100306.38
2022-12-04T19:52:15.346Z,100305.28
2022-12-04T19:54:43.052Z,100275.06
2022-12-04T19:57:11.327Z,100277.97
2022-12-04T19:59:44.488Z,100304.19
2022-12-04T20:02:12.451Z,100304.22
2022-12-04T20:04:40.237Z,100322.56
2022-12-04T20:07:08.010Z,100286.94
2022-12-04T20:09:36.006Z,100323.91
2022-12-04T20:12:03.992Z,100296.13
2022-12-04T20:14:31.646Z,100336.06
2022-12-04T20:17:00.061Z,100357.75
2022-12-04T20:19:29.298Z,100350.75
2022-12-04T20:21:59.517Z,100323.41
2022-12-04T20:24:28.179Z,100326.47
2022-12-04T20:26:55.889Z,100362.22
2022-12-04T20:29:23.522Z,100301.72
2022-12-04T20:31:51.157Z,100348.72
2022-12-04T20:34:19.323Z,100376.88
2022-12-04T20:36:48.782Z,100375.22
2022-12-04T20:39:18.358Z,100385.53
2022-12-04T20:41:46.561Z,100341.75
2022-12-04T20:44:16.930Z,100380.09
2022-12-04T20:46:45.236Z,100392.50
2022-12-04T20:49:21.125Z,100386.84
2022-12-04T20:51:51.733Z,100387.63
2022-12-04T20:54:21.771Z,100328.22
2022-12-04T20:56:52.229Z,100390.38
2022-12-04T20:59:24.470Z,100354.16
2022-12-04T21:01:52.504Z,100355.75
2022-12-04T21:04:21.047Z,100387.16
2022-12-04T21:06:49.789Z,100361.78
2022-12-04T21:09:21.149Z,100397.28
2022-12-04T21:11:53.416Z,100389.53
2022-12-04T21:14:45.151Z,100399.81
2022-12-04T21:17:18.719Z,100407.47
2022-12-04T21:19:48.539Z,100409.16
2022-12-04T21:22:18.235Z,100407.78
2022-12-04T21:24:46.109Z,100413.28
2022-12-04T21:27:20.445Z,100414.59
2022-12-04T21:29:52.072Z,100364.63
2022-12-04T21:32:20.165Z,100395.41
2022-12-04T21:34:49.028Z,100421.66
2022-12-04T21:37:16.807Z,100422.22
2022-12-04T21:39:45.198Z,100365.97
2022-12-04T21:42:32.893Z,100368.66
2022-12-04T21:45:02.756Z,100439.53
2022-12-04T21:47:31.506Z,100437.38
2022-12-04T21:49:59.691Z,100395.22
2022-12-04T21:52:27.636Z,100437.22
2022-12-04T21:54:56.733Z,100431.00
2022-12-04T21:57:24.857Z,100423.44
2022-12-04T21:59:52.598Z,100451.38
2022-12-04T22:02:21.024Z,100420.78
2022-12-04T22:04:48.859Z,100441.94
2022-12-04T22:07:16.564Z,100419.25
2022-12-04T22:09:44.321Z,100461.41
2022-12-04T22:12:41.054Z,100422.47
2022-12-04T22:14:59.821Z,100456.06
2022-12-04T22:17:29.953Z,100436.28
2022-12-04T22:19:57.811Z,100462.81
2022-12-04T22:22:25.577Z,100478.53
2022-12-04T22:24:53.404Z,100393.88
2022-12-04T22:27:21.409Z,100408.72
2022-12-04T22:29:50.953Z,100475.53
2022-12-04T22:32:20.145Z,100472.25
2022-12-04T22:34:50.913Z,100487.47
2022-12-04T22:37:19.739Z,100482.56
2022-12-04T22:39:47.333Z,100475.00
2022-12-04T22:42:15.069Z,100460.94
2022-12-04T22:44:42.849Z,100503.69
2022-12-04T22:47:11.591Z,100381.66
2022-12-04T22:49:39.379Z,100501.78
2022-12-04T22:52:07.067Z,100471.78
2022-12-04T22:54:34.861Z,100445.56
2022-12-04T22:57:02.510Z,100465.31
2022-12-04T22:59:30.185Z,100451.00
2022-12-04T23:01:57.902Z,100460.19
2022-12-04T23:04:26.098Z,100505.66
2022-12-04T23:06:53.998Z,100460.47
2022-12-04T23:09:21.714Z,100498.59
2022-12-04T23:11:53.643Z,100498.03
2022-12-04T23:14:22.073Z,100499.41
2022-12-04T23:16:51.020Z,100471.81
2022-12-04T23:19:20.601Z,100493.41
2022-12-04T23:21:54.981Z,100489.09
2022-12-04T23:24:25.336Z,100455.50
2022-12-04T23:26:53.071Z,100493.69
2022-12-04T23:29:51.492Z,100395.47
2022-12-04T23:32:08.659Z,100480.72
2022-12-04T23:34:36.516Z,100480.41
2022-12-04T23:37:04.092Z,100459.88
2022-12-04T23:39:31.888Z,100445.81
2022-12-04T23:42:00.656Z,100364.66
2022-12-04T23:44:28.548Z,100481.81
2022-12-04T23:46:56.754Z,100463.69
2022-12-04T23:49:24.542Z,100444.19
2022-12-04T23:51:53.191Z,100475.06
2022-12-04T23:54:20.789Z,100482.06
2022-12-04T23:56:48.416Z,100438.50
2022-12-04T23:59:16.067Z,100477.19
